This is the latest recevied weather packets stored in our database for station/object WB0VGI-1. If no packets are shown the sender has not sent any weather packets the latest 10 day(s).
| Time | Temp. | Humidity | Pressure | Rain* | Wind** | Luminosity | Snow |
|---|---|---|---|---|---|---|---|
| 1777564026 | 5° C | 61% | 1023.2 hPa | 0 mm | - | - | - |
| 1777562826 | 5° C | 64% | 1023.2 hPa | 0 mm | - | - | - |
| 1777561625 | 4.44° C | 67% | 1023.4 hPa | 0 mm | - | - | - |
| 1777560425 | 3.89° C | 70% | 1023.4 hPa | 0 mm | - | - | - |
| 1777559226 | 3.33° C | 70% | 1023.6 hPa | 0 mm | - | - | - |
| 1777558026 | 2.78° C | 72% | 1023.7 hPa | 0 mm | - | - | - |
| 1777556825 | 2.78° C | 74% | 1023.7 hPa | 0 mm | - | - | - |
| 1777555625 | 2.22° C | 75% | 1023.7 hPa | 0 mm | - | - | - |
| 1777554425 | 1.67° C | 76% | 1023.9 hPa | 0 mm | - | - | - |
| 1777553225 | 1.67° C | 80% | 1023.9 hPa | 0 mm | - | - | - |
| 1777552026 | 1.11° C | 82% | 1023.8 hPa | 0 mm | - | - | - |
| 1777550825 | 0.56° C | 84% | 1023.9 hPa | 0 mm | - | - | - |
| 1777549625 | 0.56° C | 84% | 1023.9 hPa | 0 mm | - | - | - |
| 1777548426 | 0.56° C | 85% | 1023.8 hPa | 0 mm | - | - | - |
| 1777547225 | 0.56° C | 84% | 1023.6 hPa | 0 mm | - | - | - |
| 1777546025 | 0.56° C | 84% | 1023.6 hPa | 0 mm | - | - | - |
| 1777544826 | 0.56° C | 84% | 1023.5 hPa | 0 mm | - | - | - |
| 1777543625 | 1.11° C | 81% | 1023.4 hPa | 0 mm | - | - | - |
| 1777542425 | 1.11° C | 80% | 1023.4 hPa | 0 mm | - | - | - |
| 1777541225 | 1.11° C | 80% | 1023.3 hPa | 0 mm | - | - | - |
| 1777540025 | 1.67° C | 79% | 1023.2 hPa | 0 mm | - | - | - |
| 1777538825 | 1.67° C | 79% | 1023.2 hPa | 0 mm | - | - | - |
| 1777537625 | 1.67° C | 78% | 1023.2 hPa | 0 mm | - | - | - |
| 1777536425 | 2.22° C | 77% | 1023 hPa | 0 mm | - | - | - |
| 1777535225 | 2.22° C | 74% | 1023 hPa | 0 mm | - | - | - |
* Rain latest hour (hover to see other rain measurements)
** Current wind speed in m/s (hover to see current wind gust speed)